sensor_id;sensor_type;location;lat;lon;timestamp;pressure;altitude;pressure_sealevel;temperature;humidity
59767;BME280;46248;58.364;25.582;2023-12-20T00:03:01;98555.28;;;1.77;100.00
59767;BME280;46248;58.364;25.582;2023-12-20T00:06:23;98547.81;;;1.71;100.00
59767;BME280;46248;58.364;25.582;2023-12-20T00:09:46;98552.06;;;1.72;100.00
59767;BME280;46248;58.364;25.582;2023-12-20T00:13:09;98546.97;;;1.71;100.00
59767;BME280;46248;58.364;25.582;2023-12-20T00:16:34;98547.13;;;1.68;100.00
59767;BME280;46248;58.364;25.582;2023-12-20T00:19:57;98547.03;;;1.69;100.00
59767;BME280;46248;58.364;25.582;2023-12-20T00:23:20;98550.00;;;1.62;100.00
59767;BME280;46248;58.364;25.582;2023-12-20T00:26:44;98545.81;;;1.59;100.00
59767;BME280;46248;58.364;25.582;2023-12-20T00:30:09;98548.66;;;1.53;100.00
59767;BME280;46248;58.364;25.582;2023-12-20T00:33:34;98551.19;;;1.54;100.00
59767;BME280;46248;58.364;25.582;2023-12-20T00:36:56;98545.31;;;1.51;100.00
59767;BME280;46248;58.364;25.582;2023-12-20T00:40:20;98553.13;;;1.49;100.00
59767;BME280;46248;58.364;25.582;2023-12-20T00:43:43;98530.41;;;1.38;100.00
59767;BME280;46248;58.364;25.582;2023-12-20T00:47:06;98554.38;;;1.41;100.00
59767;BME280;46248;58.364;25.582;2023-12-20T00:50:30;98542.59;;;1.35;100.00
59767;BME280;46248;58.364;25.582;2023-12-20T00:53:52;98546.25;;;1.31;100.00
59767;BME280;46248;58.364;25.582;2023-12-20T00:57:16;98543.09;;;1.24;100.00
59767;BME280;46248;58.364;25.582;2023-12-20T01:00:39;98548.25;;;1.24;100.00
59767;BME280;46248;58.364;25.582;2023-12-20T01:04:04;98544.22;;;1.19;100.00
59767;BME280;46248;58.364;25.582;2023-12-20T01:07:29;98538.41;;;1.13;100.00
59767;BME280;46248;58.364;25.582;2023-12-20T01:10:52;98541.19;;;1.09;100.00
59767;BME280;46248;58.364;25.582;2023-12-20T01:14:14;98529.44;;;1.03;100.00
59767;BME280;46248;58.364;25.582;2023-12-20T01:17:37;98528.78;;;0.98;100.00
59767;BME280;46248;58.364;25.582;2023-12-20T01:21:01;98540.84;;;0.98;100.00
59767;BME280;46248;58.364;25.582;2023-12-20T01:24:26;98538.44;;;0.93;100.00
59767;BME280;46248;58.364;25.582;2023-12-20T01:27:49;98538.59;;;0.90;100.00
59767;BME280;46248;58.364;25.582;2023-12-20T01:31:12;98541.28;;;0.87;100.00
59767;BME280;46248;58.364;25.582;2023-12-20T01:34:35;98523.34;;;0.85;100.00
59767;BME280;46248;58.364;25.582;2023-12-20T01:37:58;98532.88;;;0.83;100.00
59767;BME280;46248;58.364;25.582;2023-12-20T01:41:22;98533.09;;;0.79;100.00
59767;BME280;46248;58.364;25.582;2023-12-20T01:44:45;98534.88;;;0.77;100.00
59767;BME280;46248;58.364;25.582;2023-12-20T01:48:09;98523.88;;;0.73;100.00
59767;BME280;46248;58.364;25.582;2023-12-20T01:51:33;98517.25;;;0.67;100.00
59767;BME280;46248;58.364;25.582;2023-12-20T01:54:57;98510.41;;;0.66;100.00
59767;BME280;46248;58.364;25.582;2023-12-20T01:58:25;98504.53;;;0.63;100.00
59767;BME280;46248;58.364;25.582;2023-12-20T02:01:48;98502.94;;;0.60;100.00
59767;BME280;46248;58.364;25.582;2023-12-20T02:05:15;98508.94;;;0.61;100.00
59767;BME280;46248;58.364;25.582;2023-12-20T02:08:38;98509.00;;;0.59;100.00
59767;BME280;46248;58.364;25.582;2023-12-20T02:12:01;98506.50;;;0.58;100.00
59767;BME280;46248;58.364;25.582;2023-12-20T02:15:26;98517.56;;;0.60;100.00
59767;BME280;46248;58.364;25.582;2023-12-20T02:18:48;98499.78;;;0.54;100.00
59767;BME280;46248;58.364;25.582;2023-12-20T02:22:13;98498.97;;;0.53;100.00
59767;BME280;46248;58.364;25.582;2023-12-20T02:25:36;98493.94;;;0.50;100.00
59767;BME280;46248;58.364;25.582;2023-12-20T02:28:59;98509.34;;;0.52;100.00
59767;BME280;46248;58.364;25.582;2023-12-20T02:32:22;98489.63;;;0.51;100.00
59767;BME280;46248;58.364;25.582;2023-12-20T02:35:47;98483.00;;;0.45;100.00
59767;BME280;46248;58.364;25.582;2023-12-20T02:39:11;98484.03;;;0.41;100.00
59767;BME280;46248;58.364;25.582;2023-12-20T02:42:34;98492.81;;;0.37;100.00
59767;BME280;46248;58.364;25.582;2023-12-20T02:45:57;98498.78;;;0.37;100.00
59767;BME280;46248;58.364;25.582;2023-12-20T02:49:20;98505.72;;;0.35;100.00
59767;BME280;46248;58.364;25.582;2023-12-20T02:52:44;98496.59;;;0.28;100.00
59767;BME280;46248;58.364;25.582;2023-12-20T02:56:09;98500.66;;;0.34;100.00
59767;BME280;46248;58.364;25.582;2023-12-20T02:59:32;98500.69;;;0.32;100.00
59767;BME280;46248;58.364;25.582;2023-12-20T03:02:54;98505.84;;;0.32;100.00
59767;BME280;46248;58.364;25.582;2023-12-20T03:06:18;98498.06;;;0.34;100.00
59767;BME280;46248;58.364;25.582;2023-12-20T03:09:42;98502.97;;;0.40;100.00
59767;BME280;46248;58.364;25.582;2023-12-20T03:13:27;98496.84;;;0.42;100.00
59767;BME280;46248;58.364;25.582;2023-12-20T03:16:50;98489.06;;;0.44;100.00
59767;BME280;46248;58.364;25.582;2023-12-20T03:20:13;98484.69;;;0.46;100.00
59767;BME280;46248;58.364;25.582;2023-12-20T03:23:36;98479.53;;;0.46;100.00
59767;BME280;46248;58.364;25.582;2023-12-20T03:26:59;98486.47;;;0.44;100.00
59767;BME280;46248;58.364;25.582;2023-12-20T03:30:23;98486.47;;;0.44;100.00
59767;BME280;46248;58.364;25.582;2023-12-20T03:33:46;98480.50;;;0.43;100.00
59767;BME280;46248;58.364;25.582;2023-12-20T03:37:09;98476.84;;;0.29;100.00
59767;BME280;46248;58.364;25.582;2023-12-20T03:40:32;98498.66;;;0.40;100.00
59767;BME280;46248;58.364;25.582;2023-12-20T03:43:55;98508.13;;;0.40;100.00
59767;BME280;46248;58.364;25.582;2023-12-20T03:47:20;98519.91;;;0.45;100.00
59767;BME280;46248;58.364;25.582;2023-12-20T03:50:42;98532.56;;;0.50;100.00
59767;BME280;46248;58.364;25.582;2023-12-20T03:54:05;98520.53;;;0.51;100.00
59767;BME280;46248;58.364;25.582;2023-12-20T03:57:28;98526.44;;;0.53;100.00
59767;BME280;46248;58.364;25.582;2023-12-20T04:00:51;98527.25;;;0.55;100.00
59767;BME280;46248;58.364;25.582;2023-12-20T04:04:15;98526.31;;;0.56;100.00
59767;BME280;46248;58.364;25.582;2023-12-20T04:07:39;98539.97;;;0.58;100.00
59767;BME280;46248;58.364;25.582;2023-12-20T04:11:02;98552.00;;;0.57;100.00
59767;BME280;46248;58.364;25.582;2023-12-20T04:14:25;98553.00;;;0.55;100.00
59767;BME280;46248;58.364;25.582;2023-12-20T04:17:48;98559.81;;;0.56;100.00
59767;BME280;46248;58.364;25.582;2023-12-20T04:21:13;98557.34;;;0.53;100.00
59767;BME280;46248;58.364;25.582;2023-12-20T04:24:36;98559.22;;;0.49;100.00
59767;BME280;46248;58.364;25.582;2023-12-20T04:27:58;98576.47;;;0.47;100.00
59767;BME280;46248;58.364;25.582;2023-12-20T04:31:21;98558.81;;;0.38;100.00
59767;BME280;46248;58.364;25.582;2023-12-20T04:34:45;98573.50;;;0.36;100.00
59767;BME280;46248;58.364;25.582;2023-12-20T04:38:09;98584.63;;;0.36;100.00
59767;BME280;46248;58.364;25.582;2023-12-20T04:41:32;98579.91;;;0.26;100.00
59767;BME280;46248;58.364;25.582;2023-12-20T04:44:54;98590.13;;;0.27;100.00
59767;BME280;46248;58.364;25.582;2023-12-20T04:48:17;98579.25;;;0.20;100.00
59767;BME280;46248;58.364;25.582;2023-12-20T04:51:40;98585.19;;;0.22;100.00
59767;BME280;46248;58.364;25.582;2023-12-20T04:55:05;98598.22;;;0.18;100.00
59767;BME280;46248;58.364;25.582;2023-12-20T04:58:27;98592.19;;;0.19;100.00
59767;BME280;46248;58.364;25.582;2023-12-20T05:01:51;98594.94;;;0.14;100.00
59767;BME280;46248;58.364;25.582;2023-12-20T05:05:13;98599.25;;;0.14;100.00
59767;BME280;46248;58.364;25.582;2023-12-20T05:08:39;98596.63;;;0.15;100.00
59767;BME280;46248;58.364;25.582;2023-12-20T05:12:03;98601.00;;;0.13;100.00
59767;BME280;46248;58.364;25.582;2023-12-20T05:15:26;98600.16;;;0.13;100.00
59767;BME280;46248;58.364;25.582;2023-12-20T05:18:49;98595.31;;;0.05;100.00
59767;BME280;46248;58.364;25.582;2023-12-20T05:22:13;98602.88;;;0.10;100.00
59767;BME280;46248;58.364;25.582;2023-12-20T05:25:36;98595.25;;;0.07;100.00
59767;BME280;46248;58.364;25.582;2023-12-20T05:29:00;98601.47;;;0.01;100.00
59767;BME280;46248;58.364;25.582;2023-12-20T05:32:23;98605.69;;;0.04;100.00
59767;BME280;46248;58.364;25.582;2023-12-20T05:35:46;98604.06;;;0.01;100.00
59767;BME280;46248;58.364;25.582;2023-12-20T05:39:08;98600.81;;;-0.04;100.00
59767;BME280;46248;58.364;25.582;2023-12-20T05:42:32;98605.13;;;-0.05;100.00
59767;BME280;46248;58.364;25.582;2023-12-20T05:45:56;98613.75;;;-0.06;100.00
59767;BME280;46248;58.364;25.582;2023-12-20T05:49:19;98614.81;;;-0.11;100.00
59767;BME280;46248;58.364;25.582;2023-12-20T05:52:43;98612.47;;;-0.17;100.00
59767;BME280;46248;58.364;25.582;2023-12-20T05:56:05;98629.59;;;-0.16;100.00
59767;BME280;46248;58.364;25.582;2023-12-20T05:59:28;98636.47;;;-0.17;100.00
59767;BME280;46248;58.364;25.582;2023-12-20T06:02:53;98627.13;;;-0.19;100.00
59767;BME280;46248;58.364;25.582;2023-12-20T06:06:16;98617.25;;;-0.30;100.00
59767;BME280;46248;58.364;25.582;2023-12-20T06:09:38;98624.75;;;-0.24;100.00
59767;BME280;46248;58.364;25.582;2023-12-20T06:13:01;98624.06;;;-0.29;100.00
59767;BME280;46248;58.364;25.582;2023-12-20T06:16:26;98618.47;;;-0.40;100.00
59767;BME280;46248;58.364;25.582;2023-12-20T06:19:50;98650.56;;;-0.27;100.00
59767;BME280;46248;58.364;25.582;2023-12-20T06:23:13;98653.19;;;-0.29;100.00
59767;BME280;46248;58.364;25.582;2023-12-20T06:26:36;98648.13;;;-0.30;100.00
59767;BME280;46248;58.364;25.582;2023-12-20T06:30:00;98640.41;;;-0.30;100.00
59767;BME280;46248;58.364;25.582;2023-12-20T06:33:23;98643.97;;;-0.34;100.00
59767;BME280;46248;58.364;25.582;2023-12-20T06:36:47;98650.84;;;-0.35;100.00
59767;BME280;46248;58.364;25.582;2023-12-20T06:40:11;98654.38;;;-0.37;100.00
59767;BME280;46248;58.364;25.582;2023-12-20T06:43:38;98651.00;;;-0.39;100.00
59767;BME280;46248;58.364;25.582;2023-12-20T06:47:09;98646.84;;;-0.42;100.00
59767;BME280;46248;58.364;25.582;2023-12-20T06:50:32;98663.81;;;-0.38;100.00
59767;BME280;46248;58.364;25.582;2023-12-20T06:53:56;98661.25;;;-0.38;100.00
59767;BME280;46248;58.364;25.582;2023-12-20T06:57:20;98662.19;;;-0.40;100.00
59767;BME280;46248;58.364;25.582;2023-12-20T07:00:43;98661.41;;;-0.42;100.00
59767;BME280;46248;58.364;25.582;2023-12-20T07:04:06;98665.66;;;-0.41;100.00
59767;BME280;46248;58.364;25.582;2023-12-20T07:07:29;98665.78;;;-0.44;100.00
59767;BME280;46248;58.364;25.582;2023-12-20T07:10:54;98658.06;;;-0.44;100.00
59767;BME280;46248;58.364;25.582;2023-12-20T07:14:17;98663.22;;;-0.44;100.00
59767;BME280;46248;58.364;25.582;2023-12-20T07:17:40;98665.06;;;-0.48;100.00
59767;BME280;46248;58.364;25.582;2023-12-20T07:21:04;98671.69;;;-0.42;100.00
59767;BME280;46248;58.364;25.582;2023-12-20T07:24:29;98683.78;;;-0.44;100.00
59767;BME280;46248;58.364;25.582;2023-12-20T07:27:53;98679.56;;;-0.47;100.00
59767;BME280;46248;58.364;25.582;2023-12-20T07:31:16;98680.31;;;-0.43;100.00
59767;BME280;46248;58.364;25.582;2023-12-20T07:34:39;98685.56;;;-0.47;100.00
59767;BME280;46248;58.364;25.582;2023-12-20T07:38:02;98677.81;;;-0.45;100.00
59767;BME280;46248;58.364;25.582;2023-12-20T07:41:24;98679.56;;;-0.47;100.00
59767;BME280;46248;58.364;25.582;2023-12-20T07:44:49;98682.88;;;-0.43;100.00
59767;BME280;46248;58.364;25.582;2023-12-20T07:48:12;98694.78;;;-0.41;100.00
59767;BME280;46248;58.364;25.582;2023-12-20T07:51:35;98686.16;;;-0.40;100.00
59767;BME280;46248;58.364;25.582;2023-12-20T07:54:57;98685.41;;;-0.42;100.00
59767;BME280;46248;58.364;25.582;2023-12-20T07:58:20;98693.00;;;-0.39;100.00
59767;BME280;46248;58.364;25.582;2023-12-20T08:01:58;98698.97;;;-0.38;100.00
59767;BME280;46248;58.364;25.582;2023-12-20T08:05:21;98709.16;;;-0.35;100.00
59767;BME280;46248;58.364;25.582;2023-12-20T08:08:44;98713.34;;;-0.33;100.00
59767;BME280;46248;58.364;25.582;2023-12-20T08:12:21;98716.88;;;-0.35;100.00
59767;BME280;46248;58.364;25.582;2023-12-20T08:15:44;98726.97;;;-0.31;100.00
59767;BME280;46248;58.364;25.582;2023-12-20T08:19:09;98727.78;;;-0.29;100.00
59767;BME280;46248;58.364;25.582;2023-12-20T08:22:32;98733.88;;;-0.31;100.00
59767;BME280;46248;58.364;25.582;2023-12-20T08:25:56;98722.91;;;-0.36;100.00
59767;BME280;46248;58.364;25.582;2023-12-20T08:29:19;98739.59;;;-0.23;100.00
59767;BME280;46248;58.364;25.582;2023-12-20T08:32:42;98739.47;;;-0.20;100.00
59767;BME280;46248;58.364;25.582;2023-12-20T08:36:07;98730.97;;;-0.22;100.00
59767;BME280;46248;58.364;25.582;2023-12-20T08:39:30;98736.59;;;-0.12;100.00
59767;BME280;46248;58.364;25.582;2023-12-20T08:42:54;98733.09;;;-0.10;100.00
59767;BME280;46248;58.364;25.582;2023-12-20T08:46:17;98727.00;;;-0.07;100.00
59767;BME280;46248;58.364;25.582;2023-12-20T08:49:40;98735.44;;;-0.04;100.00
59767;BME280;46248;58.364;25.582;2023-12-20T08:53:05;98732.84;;;-0.04;100.00
59767;BME280;46248;58.364;25.582;2023-12-20T08:56:28;98735.31;;;-0.01;100.00
59767;BME280;46248;58.364;25.582;2023-12-20T08:59:51;98743.59;;;0.08;100.00
59767;BME280;46248;58.364;25.582;2023-12-20T09:03:14;98748.53;;;0.14;100.00
59767;BME280;46248;58.364;25.582;2023-12-20T09:06:37;98739.84;;;0.16;100.00
59767;BME280;46248;58.364;25.582;2023-12-20T09:10:01;98737.09;;;0.21;100.00
59767;BME280;46248;58.364;25.582;2023-12-20T09:13:24;98746.31;;;0.27;100.00
59767;BME280;46248;58.364;25.582;2023-12-20T09:16:49;98745.44;;;0.28;100.00
59767;BME280;46248;58.364;25.582;2023-12-20T09:20:13;98753.88;;;0.31;100.00
59767;BME280;46248;58.364;25.582;2023-12-20T09:23:35;98752.88;;;0.35;100.00
59767;BME280;46248;58.364;25.582;2023-12-20T09:27:01;98748.44;;;0.39;100.00
59767;BME280;46248;58.364;25.582;2023-12-20T09:30:24;98743.34;;;0.37;100.00
59767;BME280;46248;58.364;25.582;2023-12-20T09:33:47;98740.59;;;0.42;100.00
59767;BME280;46248;58.364;25.582;2023-12-20T09:37:10;98735.41;;;0.43;100.00
59767;BME280;46248;58.364;25.582;2023-12-20T09:40:35;98740.31;;;0.50;100.00
59767;BME280;46248;58.364;25.582;2023-12-20T09:44:01;98749.66;;;0.52;100.00
59767;BME280;46248;58.364;25.582;2023-12-20T09:47:25;98746.97;;;0.55;100.00
59767;BME280;46248;58.364;25.582;2023-12-20T09:50:48;98752.75;;;0.60;100.00
59767;BME280;46248;58.364;25.582;2023-12-20T09:54:15;98748.28;;;0.65;100.00
59767;BME280;46248;58.364;25.582;2023-12-20T09:57:39;98748.97;;;0.69;100.00
59767;BME280;46248;58.364;25.582;2023-12-20T10:01:04;98744.50;;;0.74;100.00
59767;BME280;46248;58.364;25.582;2023-12-20T10:04:28;98744.34;;;0.79;100.00
59767;BME280;46248;58.364;25.582;2023-12-20T10:07:52;98741.56;;;0.83;100.00
59767;BME280;46248;58.364;25.582;2023-12-20T10:11:15;98741.44;;;0.86;100.00
59767;BME280;46248;58.364;25.582;2023-12-20T10:14:39;98732.88;;;0.86;100.00
59767;BME280;46248;58.364;25.582;2023-12-20T10:22:51;98725.59;;;0.96;100.00
59767;BME280;46248;58.364;25.582;2023-12-20T10:26:19;98728.88;;;0.99;100.00
59767;BME280;46248;58.364;25.582;2023-12-20T10:29:42;98732.13;;;1.04;100.00
59767;BME280;46248;58.364;25.582;2023-12-20T10:33:06;98728.47;;;1.10;100.00
59767;BME280;46248;58.364;25.582;2023-12-20T10:36:30;98717.94;;;1.14;100.00
59767;BME280;46248;58.364;25.582;2023-12-20T10:39:55;98710.81;;;1.21;100.00
59767;BME280;46248;58.364;25.582;2023-12-20T10:43:19;98714.84;;;1.27;100.00
59767;BME280;46248;58.364;25.582;2023-12-20T10:46:43;98711.38;;;1.28;100.00
59767;BME280;46248;58.364;25.582;2023-12-20T10:50:12;98705.41;;;1.27;100.00
59767;BME280;46248;58.364;25.582;2023-12-20T10:53:35;98694.34;;;1.24;100.00
59767;BME280;46248;58.364;25.582;2023-12-20T10:57:01;98700.94;;;1.31;100.00
59767;BME280;46248;58.364;25.582;2023-12-20T11:00:25;98703.38;;;1.34;100.00
59767;BME280;46248;58.364;25.582;2023-12-20T11:03:50;98704.00;;;1.39;100.00
59767;BME280;46248;58.364;25.582;2023-12-20T11:07:19;98713.03;;;1.49;100.00
59767;BME280;46248;58.364;25.582;2023-12-20T11:10:49;98703.28;;;1.56;100.00
59767;BME280;46248;58.364;25.582;2023-12-20T11:14:20;98703.84;;;1.63;100.00
59767;BME280;46248;58.364;25.582;2023-12-20T11:17:45;98704.63;;;1.65;100.00
59767;BME280;46248;58.364;25.582;2023-12-20T11:21:12;98694.22;;;1.66;100.00
59767;BME280;46248;58.364;25.582;2023-12-20T11:24:35;98695.22;;;1.64;100.00
59767;BME280;46248;58.364;25.582;2023-12-20T11:28:09;98689.22;;;1.63;100.00
59767;BME280;46248;58.364;25.582;2023-12-20T11:31:40;98686.72;;;1.62;100.00
59767;BME280;46248;58.364;25.582;2023-12-20T11:35:18;98679.03;;;1.60;100.00
59767;BME280;46248;58.364;25.582;2023-12-20T11:38:54;98681.56;;;1.62;100.00
59767;BME280;46248;58.364;25.582;2023-12-20T11:42:20;98681.56;;;1.62;100.00
59767;BME280;46248;58.364;25.582;2023-12-20T11:45:49;98670.41;;;1.61;100.00
59767;BME280;46248;58.364;25.582;2023-12-20T11:49:14;98668.72;;;1.60;100.00
59767;BME280;46248;58.364;25.582;2023-12-20T11:52:37;98655.91;;;1.58;100.00
59767;BME280;46248;58.364;25.582;2023-12-20T11:56:00;98649.13;;;1.56;100.00
59767;BME280;46248;58.364;25.582;2023-12-20T11:59:24;98648.28;;;1.55;100.00
59767;BME280;46248;58.364;25.582;2023-12-20T12:02:57;98636.38;;;1.53;100.00
59767;BME280;46248;58.364;25.582;2023-12-20T12:06:24;98636.44;;;1.51;100.00
59767;BME280;46248;58.364;25.582;2023-12-20T12:09:47;98641.66;;;1.50;100.00
59767;BME280;46248;58.364;25.582;2023-12-20T12:13:10;98638.31;;;1.48;100.00
59767;BME280;46248;58.364;25.582;2023-12-20T12:16:35;98640.13;;;1.46;100.00
59767;BME280;46248;58.364;25.582;2023-12-20T12:20:03;98632.44;;;1.44;100.00
59767;BME280;46248;58.364;25.582;2023-12-20T12:23:28;98635.16;;;1.41;100.00
59767;BME280;46248;58.364;25.582;2023-12-20T12:26:51;98639.63;;;1.37;100.00
59767;BME280;46248;58.364;25.582;2023-12-20T12:30:16;98636.41;;;1.32;100.00
59767;BME280;46248;58.364;25.582;2023-12-20T12:33:39;98638.28;;;1.29;100.00
59767;BME280;46248;58.364;25.582;2023-12-20T12:37:05;98641.06;;;1.24;100.00
59767;BME280;46248;58.364;25.582;2023-12-20T12:40:29;98639.47;;;1.22;100.00
59767;BME280;46248;58.364;25.582;2023-12-20T12:43:52;98649.00;;;1.20;100.00
59767;BME280;46248;58.364;25.582;2023-12-20T12:47:18;98654.34;;;1.15;100.00
59767;BME280;46248;58.364;25.582;2023-12-20T12:50:41;98651.03;;;1.11;100.00
59767;BME280;46248;58.364;25.582;2023-12-20T12:54:04;98648.56;;;1.10;100.00
59767;BME280;46248;58.364;25.582;2023-12-20T12:57:28;98649.31;;;1.12;100.00
59767;BME280;46248;58.364;25.582;2023-12-20T13:00:51;98638.09;;;1.13;100.00
59767;BME280;46248;58.364;25.582;2023-12-20T13:04:15;98638.09;;;1.13;100.00
59767;BME280;46248;58.364;25.582;2023-12-20T13:07:38;98643.25;;;1.13;100.00
59767;BME280;46248;58.364;25.582;2023-12-20T13:11:01;98639.91;;;1.11;100.00
59767;BME280;46248;58.364;25.582;2023-12-20T13:14:26;98631.78;;;1.00;100.00
59767;BME280;46248;58.364;25.582;2023-12-20T13:17:51;98636.53;;;1.09;100.00
59767;BME280;46248;58.364;25.582;2023-12-20T13:21:14;98639.91;;;1.11;100.00
59767;BME280;46248;58.364;25.582;2023-12-20T13:24:37;98639.91;;;1.11;100.00
59767;BME280;46248;58.364;25.582;2023-12-20T13:27:59;98633.97;;;1.09;100.00
59767;BME280;46248;58.364;25.582;2023-12-20T13:31:25;98633.09;;;1.10;100.00
59767;BME280;46248;58.364;25.582;2023-12-20T13:34:48;98641.66;;;1.10;100.00
59767;BME280;46248;58.364;25.582;2023-12-20T13:38:12;98628.81;;;1.09;100.00
59767;BME280;46248;58.364;25.582;2023-12-20T13:41:35;98635.84;;;1.05;100.00
59767;BME280;46248;58.364;25.582;2023-12-20T13:44:58;98634.22;;;1.03;100.00
59767;BME280;46248;58.364;25.582;2023-12-20T13:48:23;98630.78;;;1.04;100.00
59767;BME280;46248;58.364;25.582;2023-12-20T13:51:46;98626.63;;;1.00;100.00
59767;BME280;46248;58.364;25.582;2023-12-20T13:55:09;98621.47;;;1.00;100.00
59767;BME280;46248;58.364;25.582;2023-12-20T13:58:32;98628.31;;;1.01;100.00
59767;BME280;46248;58.364;25.582;2023-12-20T14:01:58;98616.41;;;0.98;100.00
59767;BME280;46248;58.364;25.582;2023-12-20T14:05:23;98619.13;;;0.95;100.00
59767;BME280;46248;58.364;25.582;2023-12-20T14:08:49;98618.47;;;0.90;100.00
59767;BME280;46248;58.364;25.582;2023-12-20T14:12:12;98617.75;;;0.86;100.00
59767;BME280;46248;58.364;25.582;2023-12-20T14:15:36;98611.06;;;0.82;100.00
59767;BME280;46248;58.364;25.582;2023-12-20T14:18:59;98600.81;;;0.81;100.00
59767;BME280;46248;58.364;25.582;2023-12-20T14:22:23;98601.66;;;0.81;100.00
59767;BME280;46248;58.364;25.582;2023-12-20T14:25:46;98595.66;;;0.81;100.00
59767;BME280;46248;58.364;25.582;2023-12-20T14:29:12;98598.19;;;0.82;100.00
59767;BME280;46248;58.364;25.582;2023-12-20T14:32:35;98593.09;;;0.81;100.00
59767;BME280;46248;58.364;25.582;2023-12-20T14:35:59;98594.78;;;0.82;100.00
59767;BME280;46248;58.364;25.582;2023-12-20T14:39:25;98592.19;;;0.82;100.00
59767;BME280;46248;58.364;25.582;2023-12-20T14:42:48;98594.69;;;0.83;100.00
59767;BME280;46248;58.364;25.582;2023-12-20T14:46:11;98587.81;;;0.84;100.00
59767;BME280;46248;58.364;25.582;2023-12-20T14:49:34;98580.97;;;0.83;100.00
59767;BME280;46248;58.364;25.582;2023-12-20T14:52:59;98580.03;;;0.85;100.00
59767;BME280;46248;58.364;25.582;2023-12-20T14:56:24;98582.59;;;0.85;100.00
59767;BME280;46248;58.364;25.582;2023-12-20T14:59:48;98578.31;;;0.84;100.00
59767;BME280;46248;58.364;25.582;2023-12-20T15:03:10;98579.25;;;0.83;100.00
59767;BME280;46248;58.364;25.582;2023-12-20T15:06:33;98575.88;;;0.81;100.00
59767;BME280;46248;58.364;25.582;2023-12-20T15:09:56;98567.28;;;0.82;100.00
59767;BME280;46248;58.364;25.582;2023-12-20T15:13:20;98565.53;;;0.83;100.00
59767;BME280;46248;58.364;25.582;2023-12-20T15:16:43;98560.28;;;0.84;100.00
59767;BME280;46248;58.364;25.582;2023-12-20T15:20:07;98537.50;;;0.75;100.00
59767;BME280;46248;58.364;25.582;2023-12-20T15:23:31;98550.72;;;0.88;100.00
59767;BME280;46248;58.364;25.582;2023-12-20T15:26:55;98548.13;;;0.88;100.00
59767;BME280;46248;58.364;25.582;2023-12-20T15:30:19;98527.06;;;0.78;100.00
59767;BME280;46248;58.364;25.582;2023-12-20T15:33:42;98544.69;;;0.87;100.00
59767;BME280;46248;58.364;25.582;2023-12-20T15:37:04;98541.28;;;0.87;100.00
59767;BME280;46248;58.364;25.582;2023-12-20T15:40:27;98538.66;;;0.88;100.00
59767;BME280;46248;58.364;25.582;2023-12-20T15:43:51;98533.50;;;0.88;100.00
59767;BME280;46248;58.364;25.582;2023-12-20T15:47:15;98531.78;;;0.89;100.00
59767;BME280;46248;58.364;25.582;2023-12-20T15:50:38;98532.53;;;0.91;100.00
59767;BME280;46248;58.364;25.582;2023-12-20T15:54:01;98535.03;;;0.93;100.00
59767;BME280;46248;58.364;25.582;2023-12-20T15:57:27;98532.41;;;0.94;100.00
59767;BME280;46248;58.364;25.582;2023-12-20T16:01:08;98528.09;;;0.95;100.00
59767;BME280;46248;58.364;25.582;2023-12-20T16:04:33;98523.00;;;0.93;100.00
59767;BME280;46248;58.364;25.582;2023-12-20T16:07:56;98524.59;;;0.96;100.00
59767;BME280;46248;58.364;25.582;2023-12-20T16:11:19;98515.13;;;0.96;100.00
59767;BME280;46248;58.364;25.582;2023-12-20T16:14:42;98512.50;;;0.98;100.00
59767;BME280;46248;58.364;25.582;2023-12-20T16:18:05;98516.72;;;0.99;100.00
59767;BME280;46248;58.364;25.582;2023-12-20T16:21:31;98510.75;;;0.98;100.00
59767;BME280;46248;58.364;25.582;2023-12-20T16:24:53;98509.84;;;0.99;100.00
59767;BME280;46248;58.364;25.582;2023-12-20T16:28:16;98500.56;;;0.95;100.00
59767;BME280;46248;58.364;25.582;2023-12-20T16:31:39;98512.50;;;0.98;100.00
59767;BME280;46248;58.364;25.582;2023-12-20T16:35:03;98511.56;;;0.99;100.00
59767;BME280;46248;58.364;25.582;2023-12-20T16:38:27;98512.34;;;1.01;100.00
59767;BME280;46248;58.364;25.582;2023-12-20T16:41:50;98502.78;;;1.03;100.00
59767;BME280;46248;58.364;25.582;2023-12-20T16:45:13;98503.66;;;1.03;100.00
59767;BME280;46248;58.364;25.582;2023-12-20T16:48:36;98504.50;;;1.04;100.00
59767;BME280;46248;58.364;25.582;2023-12-20T16:51:59;98490.13;;;0.98;100.00
59767;BME280;46248;58.364;25.582;2023-12-20T16:55:27;98495.97;;;1.02;100.00
59767;BME280;46248;58.364;25.582;2023-12-20T16:58:49;98493.41;;;1.02;100.00
59767;BME280;46248;58.364;25.582;2023-12-20T17:02:12;98491.75;;;1.01;100.00
59767;BME280;46248;58.364;25.582;2023-12-20T17:05:35;98484.69;;;1.04;100.00
59767;BME280;46248;58.364;25.582;2023-12-20T17:08:58;98479.53;;;1.04;100.00
59767;BME280;46248;58.364;25.582;2023-12-20T17:12:23;98476.88;;;1.06;100.00
59767;BME280;46248;58.364;25.582;2023-12-20T17:15:46;98473.47;;;1.05;100.00
59767;BME280;46248;58.364;25.582;2023-12-20T17:19:10;98471.03;;;1.02;100.00
59767;BME280;46248;58.364;25.582;2023-12-20T17:22:33;98477.75;;;1.06;100.00
59767;BME280;46248;58.364;25.582;2023-12-20T17:25:56;98472.50;;;1.08;100.00
59767;BME280;46248;58.364;25.582;2023-12-20T17:29:20;98470.75;;;1.08;100.00
59767;BME280;46248;58.364;25.582;2023-12-20T17:32:43;98472.38;;;1.11;100.00
59767;BME280;46248;58.364;25.582;2023-12-20T17:36:10;98468.31;;;1.05;100.00
59767;BME280;46248;58.364;25.582;2023-12-20T17:39:35;98463.84;;;1.09;100.00
59767;BME280;46248;58.364;25.582;2023-12-20T17:42:58;98468.13;;;1.10;100.00
59767;BME280;46248;58.364;25.582;2023-12-20T17:46:22;98459.72;;;1.06;100.00
59767;BME280;46248;58.364;25.582;2023-12-20T17:49:44;98452.81;;;1.07;100.00